Time;durP1;ratioP1;P1;durP2;ratioP2;P2;SDS_P1;SDS_P2;PMS_P1;PMS_P2;Temp;Humidity;BMP_temperature;BMP_pressure;BME280_temperature;BME280_humidity;BME280_pressure;Samples;Min_cycle;Max_cycle;Signal;HPM_P1;HPM_P2
2022/03/13 00:00:48;;;;;;;1.50;1.13;;;10.00;83.90;;;;;;5018032;28;20490;-74
2022/03/13 00:03:17;;;;;;;1.50;1.20;;;9.90;83.90;;;;;;5002387;28;20548;-72
2022/03/13 00:05:47;;;;;;;1.50;1.10;;;9.90;83.80;;;;;;5021447;28;21046;-75
2022/03/13 00:08:24;;;;;;;1.50;1.10;;;9.90;83.90;;;;;;5024955;28;20463;-77
2022/03/13 00:10:57;;;;;;;1.50;1.20;;;9.80;83.90;;;;;;5013356;28;20500;-74
2022/03/13 00:13:31;;;;;;;1.50;1.10;;;9.80;83.80;;;;;;5026212;28;21131;-74
2022/03/13 00:16:03;;;;;;;1.50;1.10;;;9.70;84.00;;;;;;5018991;28;20463;-71
2022/03/13 00:18:32;;;;;;;1.93;1.70;;;9.70;84.20;;;;;;5026874;28;20471;-74
2022/03/13 00:21:01;;;;;;;1.50;1.20;;;9.60;84.30;;;;;;5016155;28;20495;-72
2022/03/13 00:23:28;;;;;;;1.47;1.10;;;9.60;84.50;;;;;;5023502;28;20459;-72
2022/03/13 00:25:54;;;;;;;5.73;5.33;;;9.60;84.60;;;;;;5029276;28;20902;-74
2022/03/13 00:28:21;;;;;;;1.50;1.10;;;9.50;84.60;;;;;;5028007;28;20474;-74
2022/03/13 00:30:48;;;;;;;1.50;1.17;;;9.50;84.40;;;;;;5020322;28;20502;-73
2022/03/13 00:33:17;;;;;;;1.67;1.57;;;9.50;84.30;;;;;;5025271;28;20476;-71
2022/03/13 00:35:43;;;;;;;27.60;8.40;;;9.40;84.30;;;;;;5028951;28;20611;-76
2022/03/13 00:38:10;;;;;;;1.50;1.10;;;9.40;84.00;;;;;;5027825;28;20482;-75
2022/03/13 00:40:37;;;;;;;1.50;1.10;;;9.40;84.00;;;;;;5026959;28;21010;-75
2022/03/13 00:43:05;;;;;;;1.47;1.10;;;9.40;83.80;;;;;;5028674;28;20463;-75
2022/03/13 00:45:31;;;;;;;4.17;3.87;;;9.30;83.40;;;;;;5029141;28;20466;-74
2022/03/13 00:47:59;;;;;;;1.50;1.20;;;9.30;83.30;;;;;;5028879;28;20924;-70
2022/03/13 00:50:27;;;;;;;1.50;1.10;;;9.30;83.00;;;;;;5025721;28;20501;-76
2022/03/13 00:52:56;;;;;;;1.50;1.20;;;9.20;82.80;;;;;;5027764;28;20879;-74
2022/03/13 00:55:22;;;;;;;1.50;1.20;;;9.20;82.80;;;;;;5028673;28;20459;-71
2022/03/13 00:57:49;;;;;;;1.50;1.40;;;9.10;82.80;;;;;;5003335;28;20571;-76
2022/03/13 01:00:17;;;;;;;1.63;1.47;;;9.10;82.90;;;;;;5021024;28;20491;-72
2022/03/13 01:02:44;;;;;;;1.50;1.20;;;9.10;82.80;;;;;;5027933;28;20520;-76
2022/03/13 01:05:11;;;;;;;1.50;1.20;;;9.00;82.90;;;;;;5026232;28;20459;-73
2022/03/13 01:07:40;;;;;;;1.83;1.73;;;9.00;82.90;;;;;;5014074;28;20483;-75
2022/03/13 01:10:08;;;;;;;1.50;1.10;;;9.00;83.10;;;;;;5021327;28;20514;-73
2022/03/13 01:12:36;;;;;;;1.47;1.10;;;8.90;83.30;;;;;;5027392;28;20550;-71
2022/03/13 01:15:03;;;;;;;1.50;1.20;;;8.90;83.30;;;;;;5029037;28;20467;-76
2022/03/13 01:17:30;;;;;;;2.17;1.97;;;8.80;83.10;;;;;;5022227;28;20485;-74
2022/03/13 01:19:58;;;;;;;1.50;1.30;;;8.80;83.30;;;;;;5020657;28;20482;-75
2022/03/13 01:22:25;;;;;;;1.50;1.30;;;8.80;83.50;;;;;;5021708;28;20486;-76
2022/03/13 01:24:53;;;;;;;1.50;1.33;;;8.70;83.70;;;;;;5028884;28;20470;-72
2022/03/13 01:27:22;;;;;;;1.50;1.30;;;8.60;84.00;;;;;;5028953;28;20478;-74
2022/03/13 01:29:49;;;;;;;1.50;1.20;;;8.60;84.00;;;;;;5027284;28;20485;-76
2022/03/13 01:32:16;;;;;;;1.43;1.10;;;8.60;83.80;;;;;;5027938;28;20475;-73
2022/03/13 01:34:46;;;;;;;1.50;1.27;;;8.50;83.10;;;;;;5028148;28;20464;-73
2022/03/13 01:37:16;;;;;;;1.50;1.20;;;8.50;83.20;;;;;;5013734;28;20476;-76
2022/03/13 01:39:43;;;;;;;1.50;1.40;;;8.40;83.10;;;;;;5026433;28;20491;-74
2022/03/13 01:42:11;;;;;;;1.50;1.20;;;8.40;82.80;;;;;;5027610;28;20467;-75
2022/03/13 01:44:38;;;;;;;1.50;1.20;;;8.40;82.40;;;;;;5028431;28;20470;-73
2022/03/13 01:47:07;;;;;;;1.50;1.20;;;8.30;82.30;;;;;;5017798;28;20502;-76
2022/03/13 01:49:34;;;;;;;1.50;1.20;;;8.30;81.80;;;;;;5024614;28;20514;-73
2022/03/13 01:52:02;;;;;;;1.50;1.20;;;8.30;81.40;;;;;;5029660;28;20876;-76
2022/03/13 01:54:31;;;;;;;1.90;1.80;;;8.30;81.10;;;;;;5032430;28;20463;-76
2022/03/13 01:56:59;;;;;;;1.47;1.10;;;8.20;80.90;;;;;;5031797;28;20455;-72
2022/03/13 01:59:29;;;;;;;1.50;1.17;;;8.20;80.60;;;;;;5030038;28;20519;-74
2022/03/13 02:01:56;;;;;;;1.50;1.20;;;8.20;80.30;;;;;;5031937;28;20459;-72
2022/03/13 02:04:27;;;;;;;1.50;1.13;;;8.20;80.10;;;;;;5032001;28;20467;-73
2022/03/13 02:06:55;;;;;;;1.50;1.20;;;8.20;80.00;;;;;;5027259;28;20908;-74
2022/03/13 02:09:22;;;;;;;1.50;1.30;;;8.20;79.70;;;;;;5022546;28;21064;-74
2022/03/13 02:11:51;;;;;;;3.10;2.90;;;8.10;79.70;;;;;;5007246;28;20491;-76
2022/03/13 02:14:22;;;;;;;1.50;1.20;;;8.10;79.30;;;;;;5025098;28;20466;-72
2022/03/13 02:16:52;;;;;;;1.50;1.30;;;8.10;78.70;;;;;;5032053;28;21053;-71
2022/03/13 02:19:18;;;;;;;1.50;1.20;;;8.10;78.60;;;;;;5030155;28;20833;-73
2022/03/13 02:21:49;;;;;;;1.50;1.20;;;8.10;78.50;;;;;;5019551;28;20479;-71
2022/03/13 02:24:20;;;;;;;1.50;1.23;;;8.10;78.30;;;;;;5029833;28;20459;-73
2022/03/13 02:26:56;;;;;;;1.47;1.20;;;8.10;78.20;;;;;;5031920;28;20709;-73
2022/03/13 02:29:23;;;;;;;1.50;1.40;;;8.00;78.10;;;;;;5017657;28;20521;-75
2022/03/13 02:31:51;;;;;;;1.50;1.20;;;8.00;77.90;;;;;;5028766;28;20744;-73
2022/03/13 02:34:18;;;;;;;1.47;1.20;;;8.00;78.00;;;;;;5029647;28;20463;-74
2022/03/13 02:37:02;;;;;;;1.50;1.20;;;8.00;77.80;;;;;;5030704;28;20467;-75
2022/03/13 02:39:35;;;;;;;1.50;1.20;;;8.00;77.70;;;;;;5029287;28;20517;-72
2022/03/13 02:42:04;;;;;;;2.27;2.07;;;7.90;77.70;;;;;;5030374;28;20472;-75
2022/03/13 02:44:31;;;;;;;1.50;1.20;;;7.90;77.70;;;;;;5030364;28;20970;-72
2022/03/13 02:47:00;;;;;;;1.50;1.20;;;7.90;77.50;;;;;;5029496;28;20487;-73
2022/03/13 02:49:29;;;;;;;1.50;1.20;;;7.90;77.50;;;;;;5027489;28;20495;-73
2022/03/13 02:51:59;;;;;;;1.50;1.30;;;7.80;77.60;;;;;;5029756;28;20470;-73
2022/03/13 02:54:26;;;;;;;1.50;1.23;;;7.80;77.60;;;;;;5030109;28;20490;-76
2022/03/13 02:56:54;;;;;;;2.90;2.70;;;7.80;77.50;;;;;;5030897;28;20467;-75
2022/03/13 02:59:21;;;;;;;1.50;1.10;;;7.70;77.50;;;;;;5027788;28;20475;-73
2022/03/13 03:01:49;;;;;;;1.50;1.30;;;7.70;77.20;;;;;;5029756;28;20462;-76
2022/03/13 03:04:17;;;;;;;1.50;1.20;;;7.70;77.30;;;;;;5029447;28;20554;-76
2022/03/13 03:06:58;;;;;;;1.50;1.20;;;7.70;77.20;;;;;;5029160;28;20517;-73
2022/03/13 03:09:25;;;;;;;1.50;1.20;;;7.60;77.10;;;;;;5029207;28;20509;-72
2022/03/13 03:11:52;;;;;;;1.50;1.20;;;7.60;77.10;;;;;;5029693;28;20470;-73
2022/03/13 03:14:21;;;;;;;1.50;1.30;;;7.60;76.90;;;;;;5030017;28;20474;-73
2022/03/13 03:16:48;;;;;;;1.50;1.20;;;7.60;76.80;;;;;;5030035;28;20463;-73
2022/03/13 03:19:15;;;;;;;1.50;1.30;;;7.60;76.60;;;;;;5029292;28;20488;-73
2022/03/13 03:21:42;;;;;;;1.50;1.20;;;7.60;76.50;;;;;;5029039;28;20470;-72
2022/03/13 03:24:14;;;;;;;1.50;1.27;;;7.60;76.50;;;;;;5029587;28;20579;-73
2022/03/13 03:26:41;;;;;;;1.50;1.20;;;7.60;76.40;;;;;;5030014;28;20473;-72
2022/03/13 03:29:08;;;;;;;1.50;1.30;;;7.60;76.20;;;;;;5030052;28;20514;-74
2022/03/13 03:31:41;;;;;;;1.50;1.20;;;7.50;75.90;;;;;;5028300;28;20463;-71
2022/03/13 03:34:10;;;;;;;1.50;1.20;;;7.50;74.90;;;;;;5030023;28;20557;-74
2022/03/13 03:36:41;;;;;;;1.50;1.30;;;7.60;74.40;;;;;;5029180;28;20517;-76
2022/03/13 03:39:08;;;;;;;3.63;3.43;;;7.70;73.90;;;;;;5024558;28;20487;-72
2022/03/13 03:41:35;;;;;;;1.50;1.20;;;7.70;73.80;;;;;;5021676;28;20951;-74
2022/03/13 03:44:02;;;;;;;1.50;1.23;;;7.70;73.50;;;;;;5029781;28;20463;-72
2022/03/13 03:46:28;;;;;;;1.50;1.30;;;7.80;73.50;;;;;;5016405;28;20480;-74
2022/03/13 03:48:57;;;;;;;1.50;1.30;;;7.80;73.20;;;;;;5028729;28;20647;-75
2022/03/13 03:51:24;;;;;;;1.50;1.20;;;7.80;73.20;;;;;;5017141;28;20546;-72
2022/03/13 03:53:50;;;;;;;1.50;1.30;;;7.80;73.10;;;;;;5015814;28;20467;-74
2022/03/13 03:56:17;;;;;;;1.50;1.20;;;7.80;73.30;;;;;;5029214;28;20463;-74
2022/03/13 03:58:44;;;;;;;1.50;1.20;;;7.80;73.30;;;;;;5028030;28;20487;-72
2022/03/13 04:01:11;;;;;;;1.50;1.23;;;7.70;73.50;;;;;;5027794;28;20474;-72
2022/03/13 04:03:38;;;;;;;1.50;1.20;;;7.70;73.30;;;;;;5028777;28;20969;-74
2022/03/13 04:06:06;;;;;;;5.30;4.90;;;7.70;72.90;;;;;;5028226;28;20470;-71
2022/03/13 04:08:34;;;;;;;1.50;1.30;;;7.80;72.10;;;;;;5026106;28;20585;-74
2022/03/13 04:11:01;;;;;;;1.50;1.20;;;7.80;71.30;;;;;;5016313;28;20737;-73
2022/03/13 04:13:29;;;;;;;1.50;1.30;;;7.80;70.50;;;;;;5014948;28;20974;-74
2022/03/13 04:15:56;;;;;;;1.50;1.30;;;7.80;70.30;;;;;;5027861;28;20471;-73
2022/03/13 04:18:23;;;;;;;6.60;3.83;;;7.80;70.40;;;;;;5028640;28;20451;-73
2022/03/13 04:20:50;;;;;;;1.50;1.30;;;7.80;69.80;;;;;;5027239;28;20470;-73
2022/03/13 04:23:18;;;;;;;1.50;1.20;;;7.90;69.60;;;;;;5028189;28;20877;-71
2022/03/13 04:25:45;;;;;;;1.50;1.30;;;7.80;70.00;;;;;;5028902;28;20858;-74
2022/03/13 04:28:12;;;;;;;1.50;1.30;;;7.90;69.80;;;;;;5024298;28;20496;-72
2022/03/13 04:30:40;;;;;;;1.50;1.20;;;7.90;69.60;;;;;;5027752;28;20993;-72
2022/03/13 04:33:07;;;;;;;5.30;4.80;;;7.90;69.20;;;;;;5028810;28;20874;-72
2022/03/13 04:35:34;;;;;;;1.47;1.20;;;8.00;69.10;;;;;;5028512;28;20554;-72
2022/03/13 04:38:01;;;;;;;1.50;1.20;;;8.00;68.90;;;;;;5021549;28;20494;-74
2022/03/13 04:40:29;;;;;;;1.50;1.20;;;8.00;68.30;;;;;;5026851;28;20487;-72
2022/03/13 04:42:56;;;;;;;6.00;3.33;;;8.10;68.30;;;;;;5028932;28;20910;-72
2022/03/13 04:45:25;;;;;;;1.50;1.20;;;8.00;68.70;;;;;;5027937;28;20459;-70
2022/03/13 04:47:51;;;;;;;2.37;2.17;;;8.00;69.30;;;;;;5025561;28;21055;-71
2022/03/13 04:50:18;;;;;;;1.60;1.50;;;8.00;69.80;;;;;;5026006;28;20506;-75
2022/03/13 04:52:45;;;;;;;3.13;1.77;;;7.90;70.00;;;;;;5027992;28;21030;-71
2022/03/13 04:55:13;;;;;;;1.47;1.13;;;7.90;70.10;;;;;;5028483;28;20842;-71
2022/03/13 04:57:41;;;;;;;1.50;1.20;;;7.90;70.20;;;;;;5028413;28;20900;-73
2022/03/13 05:00:09;;;;;;;1.50;1.20;;;7.80;70.50;;;;;;5026839;28;20486;-73
2022/03/13 05:02:37;;;;;;;1.50;1.20;;;7.80;70.20;;;;;;5017446;28;20856;-73
2022/03/13 05:05:04;;;;;;;1.50;1.20;;;7.80;70.00;;;;;;5026352;28;20463;-72
2022/03/13 05:07:31;;;;;;;1.50;1.20;;;7.80;69.70;;;;;;5027779;28;20550;-73
2022/03/13 05:09:58;;;;;;;1.50;1.20;;;7.80;69.90;;;;;;5026546;28;20493;-73
2022/03/13 05:12:28;;;;;;;1.50;1.23;;;7.80;70.10;;;;;;5028134;28;21099;-73
2022/03/13 05:14:56;;;;;;;1.50;1.30;;;7.80;69.80;;;;;;5028208;28;20848;-71
2022/03/13 05:17:23;;;;;;;1.50;1.20;;;7.80;69.90;;;;;;5028383;28;20473;-72
2022/03/13 05:19:50;;;;;;;1.50;1.23;;;7.80;69.70;;;;;;5026474;28;20479;-73
2022/03/13 05:22:17;;;;;;;1.50;1.30;;;7.80;69.50;;;;;;5026891;28;20546;-71
2022/03/13 05:24:44;;;;;;;1.50;1.40;;;7.80;69.60;;;;;;5028451;28;20463;-76
2022/03/13 05:27:10;;;;;;;1.50;1.30;;;7.80;68.80;;;;;;5030737;28;20478;-73
2022/03/13 05:29:38;;;;;;;1.50;1.20;;;7.80;69.00;;;;;;5031462;28;20501;-74
2022/03/13 05:32:07;;;;;;;1.50;1.40;;;7.80;69.10;;;;;;5014081;28;20484;-71
2022/03/13 05:34:34;;;;;;;1.50;1.20;;;7.80;69.60;;;;;;5024931;28;20554;-70
2022/03/13 05:37:01;;;;;;;1.47;1.20;;;7.80;69.50;;;;;;5030785;28;20462;-71
2022/03/13 05:39:28;;;;;;;1.50;1.27;;;7.80;69.30;;;;;;5030988;28;20800;-72
2022/03/13 05:41:55;;;;;;;1.50;1.20;;;7.80;69.10;;;;;;5021216;28;21007;-72
2022/03/13 05:44:24;;;;;;;1.50;1.20;;;7.80;69.20;;;;;;5026734;28;20470;-74
2022/03/13 05:46:50;;;;;;;1.47;1.20;;;7.80;69.30;;;;;;5032235;28;20609;-75
2022/03/13 05:49:28;;;;;;;1.50;1.20;;;7.80;69.30;;;;;;5029591;28;20487;-74
2022/03/13 05:52:00;;;;;;;1.50;1.30;;;7.80;69.00;;;;;;5036381;28;20977;-74
2022/03/13 05:54:27;;;;;;;1.50;1.20;;;7.80;69.20;;;;;;5036742;28;20460;-71
2022/03/13 05:56:55;;;;;;;1.50;1.20;;;7.80;68.80;;;;;;5024690;28;20565;-73
2022/03/13 05:59:23;;;;;;;1.50;1.20;;;7.90;68.80;;;;;;5036756;28;20570;-70
2022/03/13 06:01:50;;;;;;;1.50;1.20;;;7.90;68.20;;;;;;5032795;28;20475;-72
2022/03/13 06:04:19;;;;;;;1.50;1.20;;;7.90;67.80;;;;;;5048230;23;20866;-72
2022/03/13 06:06:45;;;;;;;1.47;1.27;;;7.90;67.40;;;;;;5049801;28;20989;-72
2022/03/13 06:09:12;;;;;;;1.50;1.33;;;8.00;67.40;;;;;;5050439;28;20575;-72
2022/03/13 06:11:39;;;;;;;2.03;1.93;;;8.00;66.30;;;;;;5031587;28;20483;-71
2022/03/13 06:14:06;;;;;;;2.40;2.23;;;8.00;65.80;;;;;;5056329;28;20481;-72
2022/03/13 06:16:34;;;;;;;1.50;1.20;;;8.00;65.60;;;;;;5049721;28;21130;-70
2022/03/13 06:19:01;;;;;;;1.47;1.20;;;8.10;65.30;;;;;;5058983;28;20939;-72
2022/03/13 06:21:29;;;;;;;1.47;1.20;;;8.10;65.20;;;;;;5068992;28;20469;-72
2022/03/13 06:23:56;;;;;;;1.50;1.20;;;8.20;65.10;;;;;;5071105;28;20484;-72
2022/03/13 06:26:22;;;;;;;1.50;1.30;;;8.20;64.80;;;;;;5070867;28;20468;-71
2022/03/13 06:28:49;;;;;;;1.60;1.50;;;8.20;64.40;;;;;;5070875;28;20496;-72
2022/03/13 06:31:16;;;;;;;1.63;1.53;;;8.20;64.60;;;;;;5065707;28;20798;-70
2022/03/13 06:33:43;;;;;;;1.50;1.30;;;8.20;64.00;;;;;;5064298;28;20600;-72
2022/03/13 06:36:10;;;;;;;1.50;1.20;;;8.20;64.50;;;;;;5059657;28;20455;-71
2022/03/13 06:38:38;;;;;;;1.40;1.10;;;8.20;64.50;;;;;;5063348;28;20461;-71
2022/03/13 06:41:05;;;;;;;1.47;1.10;;;8.20;64.40;;;;;;5061204;28;20453;-72
2022/03/13 06:43:34;;;;;;;2.43;2.23;;;8.20;64.60;;;;;;5058995;28;20488;-72
2022/03/13 06:46:02;;;;;;;2.27;2.07;;;8.20;64.60;;;;;;5069559;28;20461;-71
2022/03/13 06:48:31;;;;;;;1.50;1.20;;;8.20;64.50;;;;;;5066087;28;20530;-72
2022/03/13 06:50:58;;;;;;;1.50;1.20;;;8.20;64.60;;;;;;5059902;28;20816;-73
2022/03/13 06:53:24;;;;;;;1.43;1.10;;;8.10;64.20;;;;;;5070068;28;21060;-72
2022/03/13 06:55:53;;;;;;;2.60;2.40;;;8.10;65.00;;;;;;5070338;28;20816;-72
2022/03/13 06:58:19;;;;;;;1.63;1.53;;;8.20;64.90;;;;;;5065641;28;20511;-72
2022/03/13 07:00:48;;;;;;;1.43;1.10;;;8.20;65.00;;;;;;5067457;28;20461;-71
2022/03/13 07:03:15;;;;;;;1.50;1.20;;;8.20;64.90;;;;;;5071233;28;20548;-72
2022/03/13 07:05:42;;;;;;;1.50;1.20;;;8.20;65.00;;;;;;5063111;28;21054;-72
2022/03/13 07:08:09;;;;;;;1.50;1.30;;;8.20;64.80;;;;;;5063269;28;20465;-73
2022/03/13 07:10:35;;;;;;;1.50;1.30;;;8.20;64.80;;;;;;5061685;28;20461;-71
2022/03/13 07:13:03;;;;;;;1.47;1.20;;;8.30;64.50;;;;;;5034352;28;20513;-70
2022/03/13 07:15:31;;;;;;;1.50;1.30;;;8.30;64.40;;;;;;5069400;28;20477;-72
2022/03/13 07:17:59;;;;;;;1.50;1.20;;;8.30;64.70;;;;;;5069545;28;20551;-70
2022/03/13 07:20:25;;;;;;;3.83;3.53;;;8.30;64.30;;;;;;5064212;28;20865;-73
2022/03/13 07:22:52;;;;;;;1.50;1.20;;;8.40;64.20;;;;;;5067825;28;20481;-70
2022/03/13 07:25:19;;;;;;;1.50;1.20;;;8.40;64.30;;;;;;5069855;28;20862;-72
2022/03/13 07:27:45;;;;;;;1.43;1.10;;;8.40;64.50;;;;;;5068828;28;20465;-72
2022/03/13 07:30:15;;;;;;;1.50;1.10;;;8.40;64.20;;;;;;5068352;28;20485;-72
2022/03/13 07:32:42;;;;;;;1.43;1.10;;;8.50;64.40;;;;;;5067679;28;20484;-72
2022/03/13 07:35:11;;;;;;;1.50;1.30;;;8.50;64.10;;;;;;5054922;28;20457;-72
2022/03/13 07:37:37;;;;;;;1.47;1.20;;;8.50;64.20;;;;;;5039869;28;21115;-72
2022/03/13 07:40:05;;;;;;;1.77;1.67;;;8.50;63.90;;;;;;5063380;28;20460;-71
2022/03/13 07:42:32;;;;;;;1.50;1.20;;;8.50;63.90;;;;;;5069052;28;20461;-72
2022/03/13 07:44:59;;;;;;;1.50;1.30;;;8.60;63.70;;;;;;5068520;28;20476;-72
2022/03/13 07:47:27;;;;;;;1.50;1.20;;;8.70;63.80;;;;;;5064044;28;20462;-72
2022/03/13 07:49:57;;;;;;;1.50;1.20;;;8.90;63.30;;;;;;5057974;28;20482;-72
2022/03/13 07:52:24;;;;;;;1.50;1.20;;;9.10;63.10;;;;;;5068900;28;20666;-73
2022/03/13 07:54:51;;;;;;;1.50;1.20;;;9.20;62.30;;;;;;5068759;28;20472;-72
2022/03/13 07:57:17;;;;;;;1.60;1.43;;;9.30;62.00;;;;;;5068466;28;20461;-72
2022/03/13 07:59:47;;;;;;;1.47;1.20;;;9.30;61.80;;;;;;5063823;28;20496;-72
2022/03/13 08:02:14;;;;;;;1.50;1.10;;;9.30;62.00;;;;;;5039942;28;20868;-71
2022/03/13 08:04:42;;;;;;;1.43;1.10;;;9.30;62.10;;;;;;5056336;28;20494;-73
2022/03/13 08:07:09;;;;;;;1.50;1.20;;;9.30;61.80;;;;;;5051115;28;20485;-73
2022/03/13 08:09:36;;;;;;;1.50;1.20;;;9.20;61.70;;;;;;5061003;28;20553;-71
2022/03/13 08:12:04;;;;;;;1.90;1.80;;;9.20;61.80;;;;;;5068812;28;20838;-72
2022/03/13 08:14:31;;;;;;;1.50;1.20;;;9.20;61.80;;;;;;5067756;28;20481;-72
2022/03/13 08:16:57;;;;;;;1.50;1.10;;;9.10;61.80;;;;;;5041998;28;20495;-70
2022/03/13 08:19:24;;;;;;;1.50;1.20;;;9.20;62.10;;;;;;5055933;28;20588;-73
2022/03/13 08:21:53;;;;;;;1.47;1.10;;;9.30;61.90;;;;;;5043511;28;21014;-71
2022/03/13 08:24:20;;;;;;;1.50;1.10;;;9.50;61.70;;;;;;5061775;28;20486;-74
2022/03/13 08:26:47;;;;;;;1.50;1.10;;;9.70;61.80;;;;;;5056304;28;20973;-72
2022/03/13 08:29:15;;;;;;;1.43;1.10;;;9.80;61.00;;;;;;5063232;28;21040;-72
2022/03/13 08:31:42;;;;;;;1.50;1.23;;;9.90;60.90;;;;;;5068382;28;20457;-73
2022/03/13 08:34:09;;;;;;;1.50;1.20;;;10.10;60.70;;;;;;5060087;28;20481;-71
2022/03/13 08:36:37;;;;;;;2.40;2.20;;;10.20;60.20;;;;;;5058548;28;20468;-70
2022/03/13 08:39:05;;;;;;;3.53;3.30;;;10.30;60.00;;;;;;5067503;28;20744;-72
2022/03/13 08:41:32;;;;;;;1.50;1.10;;;10.30;60.30;;;;;;5067584;28;20461;-72
2022/03/13 08:43:59;;;;;;;1.63;1.43;;;10.30;60.40;;;;;;5065709;28;20485;-71
2022/03/13 08:46:26;;;;;;;1.50;1.13;;;10.30;60.40;;;;;;5043191;28;20508;-72
2022/03/13 08:48:53;;;;;;;1.50;1.10;;;10.30;60.60;;;;;;5054073;28;20516;-71
2022/03/13 08:51:23;;;;;;;3.50;1.73;;;10.30;60.50;;;;;;5051558;28;20548;-73
2022/03/13 08:53:50;;;;;;;3.57;3.27;;;10.30;60.40;;;;;;5062107;28;20592;-73
2022/03/13 08:56:18;;;;;;;1.50;1.10;;;10.30;60.90;;;;;;5052655;28;20485;-72
2022/03/13 08:58:45;;;;;;;1.50;1.30;;;10.30;61.00;;;;;;5058895;28;20994;-72
2022/03/13 09:01:12;;;;;;;1.50;1.07;;;10.30;60.70;;;;;;5058186;28;21304;-72
2022/03/13 09:03:39;;;;;;;3.30;2.90;;;10.30;60.60;;;;;;5056711;28;20492;-72
2022/03/13 09:06:05;;;;;;;1.47;1.10;;;10.30;60.60;;;;;;5061426;28;20462;-72
2022/03/13 09:08:32;;;;;;;2.37;2.20;;;10.40;60.80;;;;;;5061263;28;20453;-71
2022/03/13 09:10:59;;;;;;;1.50;1.10;;;10.40;61.10;;;;;;5050541;28;21008;-73
2022/03/13 09:13:27;;;;;;;3.83;3.53;;;10.40;61.30;;;;;;5053394;28;20490;-73
2022/03/13 09:15:54;;;;;;;1.50;1.10;;;10.40;61.10;;;;;;5058611;28;20460;-72
2022/03/13 09:18:21;;;;;;;1.57;1.47;;;10.40;61.10;;;;;;5061301;28;20465;-71
2022/03/13 09:20:48;;;;;;;1.47;1.10;;;10.50;61.20;;;;;;5060876;28;21016;-70
2022/03/13 09:23:14;;;;;;;1.47;1.10;;;10.40;61.10;;;;;;5057845;28;20493;-73
2022/03/13 09:25:41;;;;;;;1.40;1.00;;;10.50;61.50;;;;;;5052046;28;20474;-70
2022/03/13 09:28:08;;;;;;;1.50;1.40;;;10.50;61.60;;;;;;5059936;28;20472;-71
2022/03/13 09:30:38;;;;;;;1.80;1.70;;;10.60;61.60;;;;;;5058216;28;20492;-72
2022/03/13 09:33:05;;;;;;;2.07;1.87;;;10.70;61.60;;;;;;5059940;28;20598;-71
2022/03/13 09:35:34;;;;;;;1.43;1.10;;;10.70;61.40;;;;;;5057303;28;20868;-69
2022/03/13 09:38:01;;;;;;;1.43;1.00;;;10.70;61.70;;;;;;5032054;28;20474;-70
2022/03/13 09:40:28;;;;;;;1.50;1.20;;;10.80;61.20;;;;;;5061977;28;20489;-70
2022/03/13 09:42:56;;;;;;;1.47;1.13;;;10.80;61.10;;;;;;5030410;28;20574;-72
2022/03/13 09:45:23;;;;;;;3.17;2.97;;;10.80;61.10;;;;;;5063850;28;20469;-71
2022/03/13 09:47:52;;;;;;;1.50;1.27;;;10.90;61.40;;;;;;5057961;28;21051;-72
2022/03/13 09:50:20;;;;;;;1.47;1.00;;;10.90;61.30;;;;;;5059054;28;20495;-70
2022/03/13 09:52:47;;;;;;;1.70;1.53;;;11.00;61.40;;;;;;5059996;28;20564;-72
2022/03/13 09:55:16;;;;;;;1.43;1.00;;;11.10;61.10;;;;;;5061910;28;20465;-70
2022/03/13 09:57:44;;;;;;;1.47;1.00;;;11.20;61.30;;;;;;5058608;28;21231;-71
2022/03/13 10:00:13;;;;;;;1.43;1.03;;;11.20;61.00;;;;;;5059259;28;20457;-72
2022/03/13 10:02:41;;;;;;;9.13;5.53;;;11.30;61.30;;;;;;5061720;28;20485;-71
2022/03/13 10:05:12;;;;;;;1.50;1.07;;;11.50;61.20;;;;;;5062011;28;20954;-70
2022/03/13 10:08:08;;;;;;;1.50;1.17;;;11.60;61.00;;;;;;5057075;28;20476;-70
2022/03/13 10:10:42;;;;;;;1.50;1.10;;;11.90;60.60;;;;;;5055019;28;20527;-70
2022/03/13 10:13:09;;;;;;;1.50;1.10;;;12.20;59.90;;;;;;5064007;28;20503;-71
2022/03/13 10:15:46;;;;;;;1.50;1.20;;;12.50;60.10;;;;;;5065253;28;20550;-72
2022/03/13 10:18:14;;;;;;;1.50;1.20;;;12.80;59.50;;;;;;5066406;28;20469;-70
2022/03/13 10:20:43;;;;;;;1.50;1.00;;;12.90;58.80;;;;;;5059289;28;20460;-70
2022/03/13 10:23:13;;;;;;;1.60;1.43;;;13.10;59.20;;;;;;5062867;28;20487;-70
2022/03/13 10:25:41;;;;;;;1.50;1.00;;;13.30;58.90;;;;;;5065114;28;20472;-70
2022/03/13 10:28:20;;;;;;;1.47;1.00;;;13.50;58.60;;;;;;5064577;28;20461;-72
2022/03/13 10:30:49;;;;;;;1.50;1.10;;;13.70;58.40;;;;;;5062398;28;20979;-70
2022/03/13 10:33:16;;;;;;;1.50;1.10;;;13.90;58.30;;;;;;5064199;28;20503;-70
2022/03/13 10:35:46;;;;;;;2.40;2.20;;;14.00;58.60;;;;;;5061491;28;20575;-70
2022/03/13 10:38:19;;;;;;;1.50;1.20;;;14.20;58.50;;;;;;5062959;28;20523;-71
2022/03/13 10:40:46;;;;;;;1.47;0.90;;;14.30;58.70;;;;;;5064600;28;20488;-70
2022/03/13 10:43:19;;;;;;;1.43;1.00;;;14.30;58.40;;;;;;5060066;28;20487;-71
2022/03/13 10:45:51;;;;;;;1.50;1.00;;;14.50;58.70;;;;;;5062429;28;20465;-71
2022/03/13 10:48:21;;;;;;;1.47;1.00;;;14.70;58.60;;;;;;5063146;28;20461;-71
2022/03/13 10:50:51;;;;;;;1.50;1.00;;;14.90;58.40;;;;;;5064362;28;21232;-72
2022/03/13 10:53:18;;;;;;;1.43;1.00;;;14.90;58.30;;;;;;5064589;28;20538;-71
2022/03/13 10:55:59;;;;;;;1.50;1.10;;;15.00;58.70;;;;;;5059200;28;20466;-71
2022/03/13 10:58:30;;;;;;;1.50;1.00;;;15.20;58.70;;;;;;5058265;28;20476;-71
2022/03/13 11:01:04;;;;;;;1.77;1.67;;;15.40;58.10;;;;;;5052458;28;20501;-71
2022/03/13 11:03:32;;;;;;;1.50;1.00;;;15.50;58.10;;;;;;5062813;28;20502;-71
2022/03/13 11:06:00;;;;;;;1.47;0.97;;;15.60;57.80;;;;;;5061708;28;20461;-71
2022/03/13 11:08:28;;;;;;;1.50;1.00;;;15.60;58.80;;;;;;5065011;28;20973;-73
2022/03/13 11:10:57;;;;;;;1.47;0.90;;;15.80;58.40;;;;;;5057373;28;20493;-73
2022/03/13 11:13:26;;;;;;;3.50;1.37;;;15.90;58.80;;;;;;5062206;28;20506;-71
2022/03/13 11:15:56;;;;;;;1.70;1.60;;;16.00;58.30;;;;;;5065089;28;20961;-71
2022/03/13 11:18:26;;;;;;;1.50;0.90;;;16.10;58.90;;;;;;5062260;28;20875;-71
2022/03/13 11:20:53;;;;;;;2.70;2.50;;;16.40;59.10;;;;;;5063935;28;20453;-73
2022/03/13 11:23:23;;;;;;;2.50;2.30;;;16.50;59.50;;;;;;5066214;28;20488;-71
2022/03/13 11:25:54;;;;;;;1.73;1.53;;;16.70;60.10;;;;;;5062923;28;20470;-71
2022/03/13 11:28:21;;;;;;;3.23;3.03;;;16.90;59.90;;;;;;5064391;28;20466;-72
2022/03/13 11:30:49;;;;;;;1.50;1.17;;;17.00;59.80;;;;;;5061482;28;20579;-71
2022/03/13 11:33:32;;;;;;;1.60;1.30;;;17.10;59.80;;;;;;5060740;28;20928;-71
2022/03/13 11:36:33;;;;;;;1.50;1.00;;;17.30;58.70;;;;;;5061457;28;20468;-72
2022/03/13 11:39:04;;;;;;;1.47;0.90;;;17.20;59.20;;;;;;5066078;28;20506;-72
2022/03/13 11:41:41;;;;;;;1.50;0.90;;;17.30;59.40;;;;;;5063668;28;20458;-72
2022/03/13 11:44:41;;;;;;;1.50;1.10;;;17.30;59.50;;;;;;5060561;28;20477;-72
2022/03/13 11:47:23;;;;;;;1.50;0.90;;;17.50;60.00;;;;;;4976506;28;20921;-70
2022/03/13 11:49:50;;;;;;;1.50;1.00;;;17.70;59.70;;;;;;4984750;28;20923;-72
2022/03/13 11:52:32;;;;;;;1.47;0.90;;;17.90;59.70;;;;;;5026437;28;20952;-73
2022/03/13 11:55:04;;;;;;;1.47;0.90;;;17.90;59.30;;;;;;5065248;28;20497;-72
2022/03/13 11:57:43;;;;;;;1.40;0.90;;;18.00;59.50;;;;;;5033906;28;20543;-72
2022/03/13 12:00:32;;;;;;;1.60;1.47;;;17.90;59.80;;;;;;5059559;28;20904;-72
2022/03/13 12:03:11;;;;;;;1.50;1.10;;;18.00;59.60;;;;;;5034147;28;21029;-72
2022/03/13 12:05:52;;;;;;;1.50;1.27;;;18.10;59.10;;;;;;5058779;28;20973;-71
2022/03/13 12:08:22;;;;;;;1.70;1.53;;;18.00;59.20;;;;;;5048568;28;20905;-71
2022/03/13 12:10:51;;;;;;;2.17;1.97;;;18.00;59.60;;;;;;5058970;28;20513;-70
2022/03/13 12:13:20;;;;;;;1.60;1.23;;;17.70;60.00;;;;;;5061797;28;20499;-71
2022/03/13 12:15:48;;;;;;;1.50;1.00;;;17.70;60.60;;;;;;5064841;28;20488;-71
2022/03/13 12:18:17;;;;;;;1.50;1.10;;;17.80;60.70;;;;;;5061644;28;20468;-71
2022/03/13 12:20:46;;;;;;;1.47;0.90;;;17.90;60.70;;;;;;5062102;28;20477;-72
2022/03/13 12:23:26;;;;;;;1.40;0.90;;;18.00;60.60;;;;;;5062924;28;20477;-72
2022/03/13 12:25:55;;;;;;;1.50;1.00;;;18.20;60.50;;;;;;5061930;28;21119;-71
2022/03/13 12:28:34;;;;;;;2.10;1.63;;;18.30;59.50;;;;;;5062664;28;21329;-69
2022/03/13 12:31:02;;;;;;;3.70;3.50;;;18.20;59.50;;;;;;5061993;28;20489;-70
2022/03/13 12:33:31;;;;;;;2.07;1.87;;;18.20;59.70;;;;;;5060428;28;20508;-72
2022/03/13 12:36:01;;;;;;;2.10;1.30;;;18.20;60.00;;;;;;5047504;28;20900;-70
2022/03/13 12:38:28;;;;;;;1.50;0.90;;;18.40;59.00;;;;;;5048356;28;20523;-70
2022/03/13 12:40:58;;;;;;;1.47;0.97;;;18.30;59.20;;;;;;5049470;28;20964;-70
2022/03/13 12:43:25;;;;;;;1.43;0.90;;;18.30;59.70;;;;;;5042328;28;20889;-72
2022/03/13 12:45:53;;;;;;;1.50;1.00;;;18.40;58.80;;;;;;5062149;28;20464;-71
2022/03/13 12:48:20;;;;;;;1.50;1.17;;;18.50;59.10;;;;;;5062421;28;20458;-72
2022/03/13 12:50:47;;;;;;;1.40;0.90;;;18.50;59.40;;;;;;5050645;28;20489;-71
2022/03/13 12:53:26;;;;;;;1.50;1.00;;;18.60;59.60;;;;;;5058378;28;20810;-72
2022/03/13 12:55:54;;;;;;;1.50;0.90;;;18.70;59.50;;;;;;5054565;28;20828;-71
2022/03/13 12:58:42;;;;;;;1.50;0.90;;;18.90;59.20;;;;;;5057819;28;20478;-72
2022/03/13 13:01:19;;;;;;;1.40;0.90;;;18.90;58.70;;;;;;5057281;28;20470;-72